sensor_id;sensor_type;location;lat;lon;timestamp;temperature;humidity
45685;DHT22;46836;48.388;16.210;2023-01-23T00:01:16;1.90;99.90
45685;DHT22;46836;48.388;16.210;2023-01-23T00:03:43;1.90;99.90
45685;DHT22;46836;48.388;16.210;2023-01-23T00:06:13;1.90;99.90
45685;DHT22;46836;48.388;16.210;2023-01-23T00:08:42;1.90;99.90
45685;DHT22;46836;48.388;16.210;2023-01-23T00:11:16;1.90;99.90
45685;DHT22;46836;48.388;16.210;2023-01-23T00:13:43;1.90;99.90
45685;DHT22;46836;48.388;16.210;2023-01-23T00:16:14;1.90;99.90
45685;DHT22;46836;48.388;16.210;2023-01-23T00:18:42;1.90;99.90
45685;DHT22;46836;48.388;16.210;2023-01-23T00:21:15;1.90;99.90
45685;DHT22;46836;48.388;16.210;2023-01-23T00:23:44;1.90;99.90
45685;DHT22;46836;48.388;16.210;2023-01-23T00:26:15;1.90;99.90
45685;DHT22;46836;48.388;16.210;2023-01-23T00:28:43;1.90;99.90
45685;DHT22;46836;48.388;16.210;2023-01-23T00:31:15;1.90;99.90
45685;DHT22;46836;48.388;16.210;2023-01-23T00:33:43;1.90;99.90
45685;DHT22;46836;48.388;16.210;2023-01-23T00:36:12;1.90;99.90
45685;DHT22;46836;48.388;16.210;2023-01-23T00:38:40;1.90;99.90
45685;DHT22;46836;48.388;16.210;2023-01-23T00:41:08;1.80;99.90
45685;DHT22;46836;48.388;16.210;2023-01-23T00:43:35;1.90;99.90
45685;DHT22;46836;48.388;16.210;2023-01-23T00:46:02;1.90;99.90
45685;DHT22;46836;48.388;16.210;2023-01-23T00:48:29;1.90;99.90
45685;DHT22;46836;48.388;16.210;2023-01-23T00:50:57;1.90;99.90
45685;DHT22;46836;48.388;16.210;2023-01-23T00:53:24;2.00;99.90
45685;DHT22;46836;48.388;16.210;2023-01-23T00:55:51;1.90;99.90
45685;DHT22;46836;48.388;16.210;2023-01-23T00:58:19;1.90;99.90
45685;DHT22;46836;48.388;16.210;2023-01-23T01:00:46;2.00;99.90
45685;DHT22;46836;48.388;16.210;2023-01-23T01:03:13;2.00;99.90
45685;DHT22;46836;48.388;16.210;2023-01-23T01:05:40;2.00;99.90
45685;DHT22;46836;48.388;16.210;2023-01-23T01:08:07;2.00;99.90
45685;DHT22;46836;48.388;16.210;2023-01-23T01:10:35;2.00;99.90
45685;DHT22;46836;48.388;16.210;2023-01-23T01:13:02;1.90;99.90
45685;DHT22;46836;48.388;16.210;2023-01-23T01:15:29;1.90;99.90
45685;DHT22;46836;48.388;16.210;2023-01-23T01:17:58;1.90;99.90
45685;DHT22;46836;48.388;16.210;2023-01-23T01:20:26;1.90;99.90
45685;DHT22;46836;48.388;16.210;2023-01-23T01:22:56;1.90;99.90
45685;DHT22;46836;48.388;16.210;2023-01-23T01:25:24;1.90;99.90
45685;DHT22;46836;48.388;16.210;2023-01-23T01:27:51;1.90;99.90
45685;DHT22;46836;48.388;16.210;2023-01-23T01:30:18;1.90;99.90
45685;DHT22;46836;48.388;16.210;2023-01-23T01:32:47;2.00;99.90
45685;DHT22;46836;48.388;16.210;2023-01-23T01:35:14;2.00;99.90
45685;DHT22;46836;48.388;16.210;2023-01-23T01:37:41;2.00;99.90
45685;DHT22;46836;48.388;16.210;2023-01-23T01:40:15;2.10;99.90
45685;DHT22;46836;48.388;16.210;2023-01-23T01:42:56;2.10;99.90
45685;DHT22;46836;48.388;16.210;2023-01-23T01:48:25;2.10;99.90
45685;DHT22;46836;48.388;16.210;2023-01-23T01:50:53;2.10;99.90
45685;DHT22;46836;48.388;16.210;2023-01-23T01:53:22;2.10;99.90
45685;DHT22;46836;48.388;16.210;2023-01-23T01:55:52;2.10;99.90
45685;DHT22;46836;48.388;16.210;2023-01-23T01:58:20;2.10;99.90
45685;DHT22;46836;48.388;16.210;2023-01-23T02:00:47;2.10;99.90
45685;DHT22;46836;48.388;16.210;2023-01-23T02:03:15;2.10;99.90
45685;DHT22;46836;48.388;16.210;2023-01-23T02:05:45;2.10;99.90
45685;DHT22;46836;48.388;16.210;2023-01-23T02:08:34;2.10;99.90
45685;DHT22;46836;48.388;16.210;2023-01-23T02:11:04;2.10;99.90
45685;DHT22;46836;48.388;16.210;2023-01-23T02:13:36;2.10;99.90
45685;DHT22;46836;48.388;16.210;2023-01-23T02:16:08;2.10;99.90
45685;DHT22;46836;48.388;16.210;2023-01-23T02:18:39;2.10;99.90
45685;DHT22;46836;48.388;16.210;2023-01-23T02:21:08;2.10;99.90
45685;DHT22;46836;48.388;16.210;2023-01-23T02:24:02;2.10;99.90
45685;DHT22;46836;48.388;16.210;2023-01-23T02:26:34;2.10;99.90
45685;DHT22;46836;48.388;16.210;2023-01-23T02:29:04;2.10;99.90
45685;DHT22;46836;48.388;16.210;2023-01-23T02:31:32;2.10;99.90
45685;DHT22;46836;48.388;16.210;2023-01-23T02:34:01;2.00;99.90
45685;DHT22;46836;48.388;16.210;2023-01-23T02:36:32;2.00;99.90
45685;DHT22;46836;48.388;16.210;2023-01-23T02:39:12;2.00;99.90
45685;DHT22;46836;48.388;16.210;2023-01-23T02:41:45;2.00;99.90
45685;DHT22;46836;48.388;16.210;2023-01-23T02:44:17;1.90;99.90
45685;DHT22;46836;48.388;16.210;2023-01-23T02:46:45;1.90;99.90
45685;DHT22;46836;48.388;16.210;2023-01-23T02:49:12;1.90;99.90
45685;DHT22;46836;48.388;16.210;2023-01-23T02:51:39;1.90;99.90
45685;DHT22;46836;48.388;16.210;2023-01-23T02:54:07;1.90;99.90
45685;DHT22;46836;48.388;16.210;2023-01-23T02:56:34;1.90;99.90
45685;DHT22;46836;48.388;16.210;2023-01-23T02:59:01;2.00;99.90
45685;DHT22;46836;48.388;16.210;2023-01-23T03:01:47;2.00;99.90
45685;DHT22;46836;48.388;16.210;2023-01-23T03:04:14;2.00;99.90
45685;DHT22;46836;48.388;16.210;2023-01-23T03:06:41;2.10;99.90
45685;DHT22;46836;48.388;16.210;2023-01-23T03:09:10;2.10;99.90
45685;DHT22;46836;48.388;16.210;2023-01-23T03:11:39;2.10;99.90
45685;DHT22;46836;48.388;16.210;2023-01-23T03:14:09;2.10;99.90
45685;DHT22;46836;48.388;16.210;2023-01-23T03:16:37;2.20;99.90
45685;DHT22;46836;48.388;16.210;2023-01-23T03:19:06;2.20;99.90
45685;DHT22;46836;48.388;16.210;2023-01-23T03:21:36;2.30;99.90
45685;DHT22;46836;48.388;16.210;2023-01-23T03:24:07;2.20;99.90
45685;DHT22;46836;48.388;16.210;2023-01-23T03:26:40;2.30;99.90
45685;DHT22;46836;48.388;16.210;2023-01-23T03:29:16;2.30;99.90
45685;DHT22;46836;48.388;16.210;2023-01-23T03:32:02;2.30;99.90
45685;DHT22;46836;48.388;16.210;2023-01-23T03:34:30;2.40;99.90
45685;DHT22;46836;48.388;16.210;2023-01-23T03:36:58;2.40;99.90
45685;DHT22;46836;48.388;16.210;2023-01-23T03:39:27;2.40;99.90
45685;DHT22;46836;48.388;16.210;2023-01-23T03:42:13;2.30;99.90
45685;DHT22;46836;48.388;16.210;2023-01-23T03:44:40;2.30;99.90
45685;DHT22;46836;48.388;16.210;2023-01-23T03:47:07;2.30;99.90
45685;DHT22;46836;48.388;16.210;2023-01-23T03:49:34;2.30;99.90
45685;DHT22;46836;48.388;16.210;2023-01-23T03:52:01;2.30;99.90
45685;DHT22;46836;48.388;16.210;2023-01-23T03:54:28;2.30;99.90
45685;DHT22;46836;48.388;16.210;2023-01-23T03:56:55;2.30;99.90
45685;DHT22;46836;48.388;16.210;2023-01-23T03:59:22;2.30;99.90
45685;DHT22;46836;48.388;16.210;2023-01-23T04:01:49;2.30;99.90
45685;DHT22;46836;48.388;16.210;2023-01-23T04:04:16;2.30;99.90
45685;DHT22;46836;48.388;16.210;2023-01-23T04:06:43;2.20;99.90
45685;DHT22;46836;48.388;16.210;2023-01-23T04:09:10;2.20;99.90
45685;DHT22;46836;48.388;16.210;2023-01-23T04:11:38;2.10;99.90
45685;DHT22;46836;48.388;16.210;2023-01-23T04:14:05;2.10;99.90
45685;DHT22;46836;48.388;16.210;2023-01-23T04:16:32;2.10;99.90
45685;DHT22;46836;48.388;16.210;2023-01-23T04:18:59;2.10;99.90
45685;DHT22;46836;48.388;16.210;2023-01-23T04:21:26;2.10;99.90
45685;DHT22;46836;48.388;16.210;2023-01-23T04:23:53;2.20;99.90
45685;DHT22;46836;48.388;16.210;2023-01-23T04:26:20;2.20;99.90
45685;DHT22;46836;48.388;16.210;2023-01-23T04:28:48;2.20;99.90
45685;DHT22;46836;48.388;16.210;2023-01-23T04:31:15;2.20;99.90
45685;DHT22;46836;48.388;16.210;2023-01-23T04:33:42;2.10;99.90
45685;DHT22;46836;48.388;16.210;2023-01-23T04:36:10;2.20;99.90
45685;DHT22;46836;48.388;16.210;2023-01-23T04:38:37;2.10;99.90
45685;DHT22;46836;48.388;16.210;2023-01-23T04:41:04;2.10;99.90
45685;DHT22;46836;48.388;16.210;2023-01-23T04:43:31;2.00;99.90
45685;DHT22;46836;48.388;16.210;2023-01-23T04:45:58;2.00;99.90
45685;DHT22;46836;48.388;16.210;2023-01-23T04:48:26;2.00;99.90
45685;DHT22;46836;48.388;16.210;2023-01-23T04:50:53;2.00;99.90
45685;DHT22;46836;48.388;16.210;2023-01-23T04:53:20;2.00;99.90
45685;DHT22;46836;48.388;16.210;2023-01-23T04:55:47;2.00;99.90
45685;DHT22;46836;48.388;16.210;2023-01-23T04:58:16;1.90;99.90
45685;DHT22;46836;48.388;16.210;2023-01-23T05:00:43;1.90;99.90
45685;DHT22;46836;48.388;16.210;2023-01-23T05:03:10;1.90;99.90
45685;DHT22;46836;48.388;16.210;2023-01-23T05:05:37;1.90;99.90
45685;DHT22;46836;48.388;16.210;2023-01-23T05:08:05;1.90;99.90
45685;DHT22;46836;48.388;16.210;2023-01-23T05:10:32;1.90;99.90
45685;DHT22;46836;48.388;16.210;2023-01-23T05:12:59;1.90;99.90
45685;DHT22;46836;48.388;16.210;2023-01-23T05:15:26;1.90;99.90
45685;DHT22;46836;48.388;16.210;2023-01-23T05:17:57;1.90;99.90
45685;DHT22;46836;48.388;16.210;2023-01-23T05:20:24;1.90;99.90
45685;DHT22;46836;48.388;16.210;2023-01-23T05:22:51;1.90;99.90
45685;DHT22;46836;48.388;16.210;2023-01-23T05:25:24;1.90;99.90
45685;DHT22;46836;48.388;16.210;2023-01-23T05:27:53;1.90;99.90
45685;DHT22;46836;48.388;16.210;2023-01-23T05:30:21;1.90;99.90
45685;DHT22;46836;48.388;16.210;2023-01-23T05:32:48;2.00;99.90
45685;DHT22;46836;48.388;16.210;2023-01-23T05:35:16;2.00;99.90
45685;DHT22;46836;48.388;16.210;2023-01-23T05:37:46;2.00;99.90
45685;DHT22;46836;48.388;16.210;2023-01-23T05:40:14;2.10;99.90
45685;DHT22;46836;48.388;16.210;2023-01-23T05:42:41;2.10;99.90
45685;DHT22;46836;48.388;16.210;2023-01-23T05:45:08;2.10;99.90
45685;DHT22;46836;48.388;16.210;2023-01-23T05:47:36;2.10;99.90
45685;DHT22;46836;48.388;16.210;2023-01-23T05:50:04;2.10;99.90
45685;DHT22;46836;48.388;16.210;2023-01-23T05:52:32;2.10;99.90
45685;DHT22;46836;48.388;16.210;2023-01-23T05:54:59;2.10;99.90
45685;DHT22;46836;48.388;16.210;2023-01-23T05:57:26;2.10;99.90
45685;DHT22;46836;48.388;16.210;2023-01-23T05:59:53;2.10;99.90
45685;DHT22;46836;48.388;16.210;2023-01-23T06:02:20;2.00;99.90
45685;DHT22;46836;48.388;16.210;2023-01-23T06:04:47;2.00;99.90
45685;DHT22;46836;48.388;16.210;2023-01-23T06:07:16;2.00;99.90
45685;DHT22;46836;48.388;16.210;2023-01-23T06:09:43;2.00;99.90
45685;DHT22;46836;48.388;16.210;2023-01-23T06:12:10;2.00;99.90
45685;DHT22;46836;48.388;16.210;2023-01-23T06:14:38;2.00;99.90
45685;DHT22;46836;48.388;16.210;2023-01-23T06:17:05;2.00;99.90
45685;DHT22;46836;48.388;16.210;2023-01-23T06:19:33;2.10;99.90
45685;DHT22;46836;48.388;16.210;2023-01-23T06:22:00;2.00;99.90
45685;DHT22;46836;48.388;16.210;2023-01-23T06:24:27;2.00;99.90
45685;DHT22;46836;48.388;16.210;2023-01-23T06:26:54;2.00;99.90
45685;DHT22;46836;48.388;16.210;2023-01-23T06:29:21;2.10;99.90
45685;DHT22;46836;48.388;16.210;2023-01-23T06:31:49;2.10;99.90
45685;DHT22;46836;48.388;16.210;2023-01-23T06:34:16;2.10;99.90
45685;DHT22;46836;48.388;16.210;2023-01-23T06:36:43;2.10;99.90
45685;DHT22;46836;48.388;16.210;2023-01-23T06:39:14;2.10;99.90
45685;DHT22;46836;48.388;16.210;2023-01-23T06:41:41;2.00;99.90
45685;DHT22;46836;48.388;16.210;2023-01-23T06:44:09;2.00;99.90
45685;DHT22;46836;48.388;16.210;2023-01-23T06:46:36;2.00;99.90
45685;DHT22;46836;48.388;16.210;2023-01-23T06:49:03;2.00;99.90
45685;DHT22;46836;48.388;16.210;2023-01-23T06:51:33;2.10;99.90
45685;DHT22;46836;48.388;16.210;2023-01-23T06:54:00;2.10;99.90
45685;DHT22;46836;48.388;16.210;2023-01-23T06:56:27;2.10;99.90
45685;DHT22;46836;48.388;16.210;2023-01-23T06:58:54;2.10;99.90
45685;DHT22;46836;48.388;16.210;2023-01-23T07:01:21;2.10;99.90
45685;DHT22;46836;48.388;16.210;2023-01-23T07:03:49;2.10;99.90
45685;DHT22;46836;48.388;16.210;2023-01-23T07:06:17;2.20;99.90
45685;DHT22;46836;48.388;16.210;2023-01-23T07:08:44;2.20;99.90
45685;DHT22;46836;48.388;16.210;2023-01-23T07:11:11;2.20;99.90
45685;DHT22;46836;48.388;16.210;2023-01-23T07:13:38;2.20;99.90
45685;DHT22;46836;48.388;16.210;2023-01-23T07:16:05;2.20;99.90
45685;DHT22;46836;48.388;16.210;2023-01-23T07:18:33;2.30;99.90
45685;DHT22;46836;48.388;16.210;2023-01-23T07:21:03;2.30;99.90
45685;DHT22;46836;48.388;16.210;2023-01-23T07:23:32;2.30;99.90
45685;DHT22;46836;48.388;16.210;2023-01-23T07:26:01;2.30;99.90
45685;DHT22;46836;48.388;16.210;2023-01-23T07:28:29;2.30;99.90
45685;DHT22;46836;48.388;16.210;2023-01-23T07:30:57;2.30;99.90
45685;DHT22;46836;48.388;16.210;2023-01-23T07:33:25;2.30;99.90
45685;DHT22;46836;48.388;16.210;2023-01-23T07:35:53;2.30;99.90
45685;DHT22;46836;48.388;16.210;2023-01-23T07:38:20;2.30;99.90
45685;DHT22;46836;48.388;16.210;2023-01-23T07:40:52;2.30;99.90
45685;DHT22;46836;48.388;16.210;2023-01-23T07:43:19;2.30;99.90
45685;DHT22;46836;48.388;16.210;2023-01-23T07:45:46;2.30;99.90
45685;DHT22;46836;48.388;16.210;2023-01-23T07:48:13;2.30;99.90
45685;DHT22;46836;48.388;16.210;2023-01-23T07:50:40;2.30;99.90
45685;DHT22;46836;48.388;16.210;2023-01-23T07:53:07;2.40;99.90
45685;DHT22;46836;48.388;16.210;2023-01-23T07:55:37;2.40;99.90
45685;DHT22;46836;48.388;16.210;2023-01-23T07:58:04;2.40;99.90
45685;DHT22;46836;48.388;16.210;2023-01-23T08:00:32;2.40;99.90
45685;DHT22;46836;48.388;16.210;2023-01-23T08:02:59;2.40;99.90
45685;DHT22;46836;48.388;16.210;2023-01-23T08:05:26;2.40;99.90
45685;DHT22;46836;48.388;16.210;2023-01-23T08:07:54;2.40;99.90
45685;DHT22;46836;48.388;16.210;2023-01-23T08:10:38;2.40;99.90
45685;DHT22;46836;48.388;16.210;2023-01-23T08:13:05;2.50;99.90
45685;DHT22;46836;48.388;16.210;2023-01-23T08:15:32;2.50;99.90
45685;DHT22;46836;48.388;16.210;2023-01-23T08:17:59;2.60;99.90
45685;DHT22;46836;48.388;16.210;2023-01-23T08:20:26;2.60;99.90
45685;DHT22;46836;48.388;16.210;2023-01-23T08:22:53;2.60;99.90
45685;DHT22;46836;48.388;16.210;2023-01-23T08:25:22;2.60;99.90
45685;DHT22;46836;48.388;16.210;2023-01-23T08:27:49;2.60;99.90
45685;DHT22;46836;48.388;16.210;2023-01-23T08:30:16;2.60;99.90
45685;DHT22;46836;48.388;16.210;2023-01-23T08:32:44;2.60;99.90
45685;DHT22;46836;48.388;16.210;2023-01-23T08:35:11;2.60;99.90
45685;DHT22;46836;48.388;16.210;2023-01-23T08:37:38;2.60;99.90
45685;DHT22;46836;48.388;16.210;2023-01-23T08:40:07;2.60;99.90
45685;DHT22;46836;48.388;16.210;2023-01-23T08:42:34;2.60;99.90
45685;DHT22;46836;48.388;16.210;2023-01-23T08:45:01;2.60;99.90
45685;DHT22;46836;48.388;16.210;2023-01-23T08:47:29;2.60;99.90
45685;DHT22;46836;48.388;16.210;2023-01-23T08:50:04;2.60;99.90
45685;DHT22;46836;48.388;16.210;2023-01-23T08:52:31;2.70;99.90
45685;DHT22;46836;48.388;16.210;2023-01-23T08:55:01;2.70;99.90
45685;DHT22;46836;48.388;16.210;2023-01-23T08:57:28;2.70;99.90
45685;DHT22;46836;48.388;16.210;2023-01-23T08:59:55;2.80;99.90
45685;DHT22;46836;48.388;16.210;2023-01-23T09:02:22;2.80;99.90
45685;DHT22;46836;48.388;16.210;2023-01-23T09:04:50;2.80;99.90
45685;DHT22;46836;48.388;16.210;2023-01-23T09:07:17;2.80;99.90
45685;DHT22;46836;48.388;16.210;2023-01-23T09:09:44;2.80;99.90
45685;DHT22;46836;48.388;16.210;2023-01-23T09:12:11;2.80;99.90
45685;DHT22;46836;48.388;16.210;2023-01-23T09:14:38;2.80;99.90
45685;DHT22;46836;48.388;16.210;2023-01-23T09:17:05;2.70;99.90
45685;DHT22;46836;48.388;16.210;2023-01-23T09:19:32;2.70;99.90
45685;DHT22;46836;48.388;16.210;2023-01-23T09:21:59;2.70;99.90
45685;DHT22;46836;48.388;16.210;2023-01-23T09:24:27;2.70;99.90
45685;DHT22;46836;48.388;16.210;2023-01-23T09:26:54;2.70;99.90
45685;DHT22;46836;48.388;16.210;2023-01-23T09:29:21;2.70;99.90
45685;DHT22;46836;48.388;16.210;2023-01-23T09:31:48;2.70;99.90
45685;DHT22;46836;48.388;16.210;2023-01-23T09:34:15;2.80;99.90
45685;DHT22;46836;48.388;16.210;2023-01-23T09:36:43;2.80;99.90
45685;DHT22;46836;48.388;16.210;2023-01-23T09:39:10;2.90;99.90
45685;DHT22;46836;48.388;16.210;2023-01-23T09:41:39;2.90;99.90
45685;DHT22;46836;48.388;16.210;2023-01-23T09:44:22;2.90;99.90
45685;DHT22;46836;48.388;16.210;2023-01-23T09:46:56;2.90;99.90
45685;DHT22;46836;48.388;16.210;2023-01-23T09:52:19;2.90;99.90
45685;DHT22;46836;48.388;16.210;2023-01-23T09:54:50;2.80;99.90
45685;DHT22;46836;48.388;16.210;2023-01-23T09:57:29;2.80;99.90
45685;DHT22;46836;48.388;16.210;2023-01-23T10:00:45;2.90;99.90
45685;DHT22;46836;48.388;16.210;2023-01-23T10:02:58;2.90;99.90
45685;DHT22;46836;48.388;16.210;2023-01-23T10:11:35;3.10;99.90
45685;DHT22;46836;48.388;16.210;2023-01-23T10:20:15;3.30;99.90
45685;DHT22;46836;48.388;16.210;2023-01-23T10:23:11;3.40;99.90
45685;DHT22;46836;48.388;16.210;2023-01-23T10:25:44;3.40;99.90
45685;DHT22;46836;48.388;16.210;2023-01-23T10:30:59;3.50;99.90
45685;DHT22;46836;48.388;16.210;2023-01-23T10:33:44;3.50;99.90
45685;DHT22;46836;48.388;16.210;2023-01-23T10:39:16;3.40;99.90
45685;DHT22;46836;48.388;16.210;2023-01-23T10:41:45;3.40;99.90
45685;DHT22;46836;48.388;16.210;2023-01-23T10:44:18;3.30;99.90
45685;DHT22;46836;48.388;16.210;2023-01-23T10:46:54;3.30;99.90
45685;DHT22;46836;48.388;16.210;2023-01-23T10:49:31;3.30;99.90
45685;DHT22;46836;48.388;16.210;2023-01-23T10:52:02;3.30;99.90
45685;DHT22;46836;48.388;16.210;2023-01-23T10:54:29;3.30;99.90
45685;DHT22;46836;48.388;16.210;2023-01-23T11:04:34;3.30;99.90
45685;DHT22;46836;48.388;16.210;2023-01-23T11:07:24;3.40;99.90
45685;DHT22;46836;48.388;16.210;2023-01-23T11:09:57;3.50;99.90
45685;DHT22;46836;48.388;16.210;2023-01-23T11:12:32;3.50;99.90
45685;DHT22;46836;48.388;16.210;2023-01-23T11:15:19;3.50;99.90
45685;DHT22;46836;48.388;16.210;2023-01-23T11:17:49;3.50;99.90
45685;DHT22;46836;48.388;16.210;2023-01-23T11:20:27;3.60;99.90
45685;DHT22;46836;48.388;16.210;2023-01-23T11:25:53;3.60;99.90
45685;DHT22;46836;48.388;16.210;2023-01-23T11:28:22;3.60;99.90
45685;DHT22;46836;48.388;16.210;2023-01-23T11:33:40;3.80;99.90
45685;DHT22;46836;48.388;16.210;2023-01-23T11:38:46;3.80;99.90
45685;DHT22;46836;48.388;16.210;2023-01-23T11:41:21;3.80;99.90
45685;DHT22;46836;48.388;16.210;2023-01-23T11:43:52;3.70;99.90
45685;DHT22;46836;48.388;16.210;2023-01-23T11:46:32;3.80;99.90
45685;DHT22;46836;48.388;16.210;2023-01-23T11:52:31;3.80;99.90
45685;DHT22;46836;48.388;16.210;2023-01-23T12:00:59;3.90;99.90
45685;DHT22;46836;48.388;16.210;2023-01-23T12:06:14;4.00;99.90
45685;DHT22;46836;48.388;16.210;2023-01-23T12:09:10;4.00;99.90
45685;DHT22;46836;48.388;16.210;2023-01-23T12:11:51;3.90;99.90
45685;DHT22;46836;48.388;16.210;2023-01-23T12:14:31;3.90;99.90
45685;DHT22;46836;48.388;16.210;2023-01-23T12:17:42;3.90;99.90
45685;DHT22;46836;48.388;16.210;2023-01-23T12:25:40;3.90;99.90
45685;DHT22;46836;48.388;16.210;2023-01-23T12:28:40;4.00;99.90
45685;DHT22;46836;48.388;16.210;2023-01-23T12:32:07;4.00;99.90
45685;DHT22;46836;48.388;16.210;2023-01-23T12:37:09;4.10;99.90
45685;DHT22;46836;48.388;16.210;2023-01-23T12:45:31;4.30;99.90
45685;DHT22;46836;48.388;16.210;2023-01-23T12:50:37;4.40;99.90
45685;DHT22;46836;48.388;16.210;2023-01-23T12:53:18;4.40;99.90
45685;DHT22;46836;48.388;16.210;2023-01-23T12:56:08;4.40;99.90
45685;DHT22;46836;48.388;16.210;2023-01-23T12:58:40;4.40;99.90
45685;DHT22;46836;48.388;16.210;2023-01-23T13:01:11;4.50;99.90
45685;DHT22;46836;48.388;16.210;2023-01-23T13:03:46;4.50;99.90
45685;DHT22;46836;48.388;16.210;2023-01-23T13:12:36;4.60;99.90
45685;DHT22;46836;48.388;16.210;2023-01-23T13:15:31;4.70;99.90
45685;DHT22;46836;48.388;16.210;2023-01-23T13:18:20;4.80;99.90
45685;DHT22;46836;48.388;16.210;2023-01-23T13:23:39;4.80;99.90
45685;DHT22;46836;48.388;16.210;2023-01-23T13:28:43;5.00;99.90
45685;DHT22;46836;48.388;16.210;2023-01-23T13:36:43;5.30;99.90
45685;DHT22;46836;48.388;16.210;2023-01-23T13:41:51;5.30;99.90
45685;DHT22;46836;48.388;16.210;2023-01-23T13:44:21;5.30;99.90
45685;DHT22;46836;48.388;16.210;2023-01-23T13:50:16;5.30;99.90
45685;DHT22;46836;48.388;16.210;2023-01-23T13:53:14;5.40;99.90
45685;DHT22;46836;48.388;16.210;2023-01-23T13:56:17;5.40;99.90
45685;DHT22;46836;48.388;16.210;2023-01-23T13:59:28;5.40;99.90
45685;DHT22;46836;48.388;16.210;2023-01-23T14:02:27;5.30;99.90
45685;DHT22;46836;48.388;16.210;2023-01-23T14:05:31;5.30;99.90
45685;DHT22;46836;48.388;16.210;2023-01-23T14:08:20;5.20;99.90
45685;DHT22;46836;48.388;16.210;2023-01-23T14:11:01;5.30;99.90
45685;DHT22;46836;48.388;16.210;2023-01-23T14:13:48;5.20;99.90
45685;DHT22;46836;48.388;16.210;2023-01-23T14:16:29;5.30;99.90
45685;DHT22;46836;48.388;16.210;2023-01-23T14:19:25;5.30;99.90
45685;DHT22;46836;48.388;16.210;2023-01-23T14:22:08;5.30;99.90
45685;DHT22;46836;48.388;16.210;2023-01-23T14:24:52;5.30;99.90
45685;DHT22;46836;48.388;16.210;2023-01-23T14:27:25;5.30;99.90
45685;DHT22;46836;48.388;16.210;2023-01-23T14:30:02;5.30;99.90
45685;DHT22;46836;48.388;16.210;2023-01-23T14:32:32;5.30;99.90
45685;DHT22;46836;48.388;16.210;2023-01-23T14:34:59;5.30;99.90
45685;DHT22;46836;48.388;16.210;2023-01-23T14:37:27;5.20;99.90
45685;DHT22;46836;48.388;16.210;2023-01-23T14:39:58;5.20;99.90
45685;DHT22;46836;48.388;16.210;2023-01-23T14:42:37;5.10;99.90
45685;DHT22;46836;48.388;16.210;2023-01-23T14:45:09;5.10;99.90
45685;DHT22;46836;48.388;16.210;2023-01-23T14:47:43;5.10;99.90
45685;DHT22;46836;48.388;16.210;2023-01-23T14:50:19;5.10;99.90
45685;DHT22;46836;48.388;16.210;2023-01-23T14:52:59;5.10;99.90
45685;DHT22;46836;48.388;16.210;2023-01-23T14:55:28;5.10;99.90
45685;DHT22;46836;48.388;16.210;2023-01-23T14:57:57;5.00;99.90
45685;DHT22;46836;48.388;16.210;2023-01-23T15:00:27;5.00;99.90
45685;DHT22;46836;48.388;16.210;2023-01-23T15:02:55;5.00;99.90
45685;DHT22;46836;48.388;16.210;2023-01-23T15:05:23;5.00;99.90
45685;DHT22;46836;48.388;16.210;2023-01-23T15:10:31;4.90;99.90
45685;DHT22;46836;48.388;16.210;2023-01-23T15:13:06;4.90;99.90
45685;DHT22;46836;48.388;16.210;2023-01-23T15:15:36;4.90;99.90
45685;DHT22;46836;48.388;16.210;2023-01-23T15:18:18;4.80;99.90
45685;DHT22;46836;48.388;16.210;2023-01-23T15:21:17;4.80;99.90
45685;DHT22;46836;48.388;16.210;2023-01-23T15:24:18;4.80;99.90
45685;DHT22;46836;48.388;16.210;2023-01-23T15:26:57;4.80;99.90
45685;DHT22;46836;48.388;16.210;2023-01-23T15:29:25;4.70;99.90
45685;DHT22;46836;48.388;16.210;2023-01-23T15:31:54;4.70;99.90
45685;DHT22;46836;48.388;16.210;2023-01-23T15:34:32;4.70;99.90
45685;DHT22;46836;48.388;16.210;2023-01-23T15:37:17;4.70;99.90
45685;DHT22;46836;48.388;16.210;2023-01-23T15:39:53;4.70;99.90
45685;DHT22;46836;48.388;16.210;2023-01-23T15:42:28;4.60;99.90
45685;DHT22;46836;48.388;16.210;2023-01-23T15:44:56;4.60;99.90
45685;DHT22;46836;48.388;16.210;2023-01-23T15:47:31;4.60;99.90
45685;DHT22;46836;48.388;16.210;2023-01-23T15:49:58;4.60;99.90
45685;DHT22;46836;48.388;16.210;2023-01-23T15:52:49;4.60;99.90
45685;DHT22;46836;48.388;16.210;2023-01-23T15:55:19;4.60;99.90
45685;DHT22;46836;48.388;16.210;2023-01-23T15:57:47;4.50;99.90
45685;DHT22;46836;48.388;16.210;2023-01-23T16:00:25;4.50;99.90
45685;DHT22;46836;48.388;16.210;2023-01-23T16:02:54;4.60;99.90
45685;DHT22;46836;48.388;16.210;2023-01-23T16:05:35;4.50;99.90
45685;DHT22;46836;48.388;16.210;2023-01-23T16:08:04;4.50;99.90
45685;DHT22;46836;48.388;16.210;2023-01-23T16:10:37;4.50;99.90
45685;DHT22;46836;48.388;16.210;2023-01-23T16:13:05;4.40;99.90
45685;DHT22;46836;48.388;16.210;2023-01-23T16:15:34;4.40;99.90
45685;DHT22;46836;48.388;16.210;2023-01-23T16:18:03;4.40;99.90
45685;DHT22;46836;48.388;16.210;2023-01-23T16:20:34;4.40;99.90
45685;DHT22;46836;48.388;16.210;2023-01-23T16:23:09;4.40;99.90
45685;DHT22;46836;48.388;16.210;2023-01-23T16:25:41;4.40;99.90
45685;DHT22;46836;48.388;16.210;2023-01-23T16:28:13;4.30;99.90
45685;DHT22;46836;48.388;16.210;2023-01-23T16:30:41;4.30;99.90
45685;DHT22;46836;48.388;16.210;2023-01-23T16:33:08;4.30;99.90
45685;DHT22;46836;48.388;16.210;2023-01-23T16:35:36;4.20;99.90
45685;DHT22;46836;48.388;16.210;2023-01-23T16:38:03;4.10;99.90
45685;DHT22;46836;48.388;16.210;2023-01-23T16:40:31;4.20;99.90
45685;DHT22;46836;48.388;16.210;2023-01-23T16:42:59;4.20;99.90
45685;DHT22;46836;48.388;16.210;2023-01-23T16:45:31;4.20;99.90
45685;DHT22;46836;48.388;16.210;2023-01-23T16:47:58;4.20;99.90
45685;DHT22;46836;48.388;16.210;2023-01-23T16:50:38;4.20;99.90
45685;DHT22;46836;48.388;16.210;2023-01-23T16:55:44;4.30;99.90
45685;DHT22;46836;48.388;16.210;2023-01-23T16:58:20;4.30;99.90
45685;DHT22;46836;48.388;16.210;2023-01-23T17:00:49;4.20;99.90
45685;DHT22;46836;48.388;16.210;2023-01-23T17:03:27;4.10;99.90
45685;DHT22;46836;48.388;16.210;2023-01-23T17:05:56;4.20;99.90
45685;DHT22;46836;48.388;16.210;2023-01-23T17:08:24;4.20;99.90
45685;DHT22;46836;48.388;16.210;2023-01-23T17:10:56;4.20;99.90
45685;DHT22;46836;48.388;16.210;2023-01-23T17:13:25;4.20;99.90
45685;DHT22;46836;48.388;16.210;2023-01-23T17:15:54;4.20;99.90
45685;DHT22;46836;48.388;16.210;2023-01-23T17:18:24;4.20;99.90
45685;DHT22;46836;48.388;16.210;2023-01-23T17:20:53;4.20;99.90
45685;DHT22;46836;48.388;16.210;2023-01-23T17:23:22;4.20;99.90
45685;DHT22;46836;48.388;16.210;2023-01-23T17:25:50;4.20;99.90
45685;DHT22;46836;48.388;16.210;2023-01-23T17:28:26;4.20;99.90
45685;DHT22;46836;48.388;16.210;2023-01-23T17:30:56;4.20;99.90
45685;DHT22;46836;48.388;16.210;2023-01-23T17:33:28;4.20;99.90